createdAt,value
2018-05-25T00:02:22.385Z,97466.97
2018-05-25T00:04:51.168Z,97464.16
2018-05-25T00:07:18.696Z,97459.41
2018-05-25T00:09:46.218Z,97469.02
2018-05-25T00:12:13.800Z,97468.94
2018-05-25T00:14:41.326Z,97464.56
2018-05-25T00:17:08.963Z,97465.69
2018-05-25T00:19:36.484Z,97461.59
2018-05-25T00:22:04.274Z,97462.72
2018-05-25T00:24:31.805Z,97464.30
2018-05-25T00:26:59.333Z,97464.27
2018-05-25T00:29:26.883Z,97468.59
2018-05-25T00:31:54.408Z,97461.74
2018-05-25T00:34:21.969Z,97464.66
2018-05-25T00:36:49.489Z,97459.12
2018-05-25T00:39:17.253Z,97458.89
2018-05-25T00:41:44.775Z,97454.97
2018-05-25T00:44:12.348Z,97456.98
2018-05-25T00:46:39.897Z,97453.69
2018-05-25T00:49:07.449Z,97452.92
2018-05-25T00:51:35.005Z,97454.41
2018-05-25T00:54:02.535Z,97455.28
2018-05-25T00:56:30.101Z,97459.41
2018-05-25T00:58:57.628Z,97461.17
2018-05-25T01:01:25.155Z,97452.70
2018-05-25T01:03:52.720Z,97452.31
2018-05-25T01:06:20.255Z,97450.31
2018-05-25T01:08:47.816Z,97452.28
2018-05-25T01:11:15.352Z,97448.59
2018-05-25T01:13:43.012Z,97453.79
2018-05-25T01:16:10.536Z,97448.37
2018-05-25T01:18:38.061Z,97443.81
2018-05-25T01:21:05.624Z,97443.66
2018-05-25T01:23:33.153Z,97448.92
2018-05-25T01:26:00.706Z,97449.77
2018-05-25T01:28:28.234Z,97450.27
2018-05-25T01:30:56.136Z,97451.88
2018-05-25T01:33:23.660Z,97453.09
2018-05-25T01:35:51.181Z,97449.41
2018-05-25T01:38:18.738Z,97447.30
2018-05-25T01:40:46.269Z,97446.14
2018-05-25T01:43:13.816Z,97446.14
2018-05-25T01:45:41.341Z,97447.00
2018-05-25T01:48:08.901Z,97445.88
2018-05-25T01:50:36.420Z,97445.88
2018-05-25T01:53:03.960Z,97438.42
2018-05-25T01:55:31.516Z,97451.67
2018-05-25T01:57:59.041Z,97448.88
2018-05-25T02:00:26.593Z,97451.03
2018-05-25T02:02:54.127Z,97447.64
2018-05-25T02:05:21.974Z,97448.61
2018-05-25T02:07:49.516Z,97438.47
2018-05-25T02:10:17.040Z,97443.60
2018-05-25T02:12:44.889Z,97437.89
2018-05-25T02:15:12.755Z,97440.37
2018-05-25T02:17:40.308Z,97442.14
2018-05-25T02:20:07.831Z,97439.22
2018-05-25T02:22:35.401Z,97440.37
2018-05-25T02:25:02.933Z,97442.45
2018-05-25T02:27:30.464Z,97438.80
2018-05-25T02:29:58.022Z,97439.22
2018-05-25T02:32:25.561Z,97430.98
2018-05-25T02:34:53.128Z,97432.17
2018-05-25T02:37:20.668Z,97434.06
2018-05-25T02:39:48.212Z,97434.25
2018-05-25T02:42:15.765Z,97431.25
2018-05-25T02:44:43.289Z,97430.55
2018-05-25T02:47:10.841Z,97430.98
2018-05-25T02:49:38.365Z,97426.46
2018-05-25T02:52:05.918Z,97423.96
2018-05-25T02:54:33.446Z,97430.31
2018-05-25T02:57:00.975Z,97429.82
2018-05-25T02:59:28.535Z,97428.75
2018-05-25T03:01:56.064Z,97433.24
2018-05-25T03:04:24.008Z,97435.09
2018-05-25T03:06:51.537Z,97434.20
2018-05-25T03:09:19.060Z,97429.28
2018-05-25T03:11:46.612Z,97434.27
2018-05-25T03:14:14.141Z,97430.59
2018-05-25T03:16:41.717Z,97435.48
2018-05-25T03:19:09.252Z,97426.12
2018-05-25T03:21:36.782Z,97429.50
2018-05-25T03:24:04.336Z,97427.33
2018-05-25T03:26:31.869Z,97431.24
2018-05-25T03:28:59.536Z,97434.06
2018-05-25T03:31:27.122Z,97436.41
2018-05-25T03:33:54.649Z,97432.34
2018-05-25T03:36:22.200Z,97435.06
2018-05-25T03:38:49.721Z,97438.72
2018-05-25T03:41:17.264Z,97438.23
2018-05-25T03:43:44.784Z,97443.34
2018-05-25T03:46:12.505Z,97446.25
2018-05-25T03:48:40.036Z,97448.84
2018-05-25T03:51:07.788Z,97446.36
2018-05-25T03:53:35.345Z,97444.59
2018-05-25T03:56:02.865Z,97441.83
2018-05-25T03:58:42.392Z,97446.84
2018-05-25T04:01:21.785Z,97446.81
2018-05-25T04:03:49.341Z,97447.96
2018-05-25T04:06:16.885Z,97449.32
2018-05-25T04:08:44.452Z,97448.37
2018-05-25T04:11:11.982Z,97458.59
2018-05-25T04:13:39.507Z,97458.33
2018-05-25T04:16:07.056Z,97453.80
2018-05-25T04:18:34.577Z,97464.25
2018-05-25T04:21:02.171Z,97457.17
2018-05-25T04:23:29.717Z,97459.69
2018-05-25T04:25:57.281Z,97464.98
2018-05-25T04:28:24.805Z,97459.86
2018-05-25T04:30:52.340Z,97459.23
2018-05-25T04:33:19.897Z,97456.08
2018-05-25T04:35:48.403Z,97456.99
2018-05-25T04:38:15.967Z,97460.25
2018-05-25T04:40:43.490Z,97459.06
2018-05-25T04:43:11.181Z,97458.60
2018-05-25T04:45:38.776Z,97458.00
2018-05-25T04:48:06.302Z,97459.55
2018-05-25T04:50:33.845Z,97458.81
2018-05-25T04:53:01.374Z,97455.06
2018-05-25T04:55:28.932Z,97467.91
2018-05-25T04:57:56.456Z,97468.77
2018-05-25T05:00:24.184Z,97466.14
2018-05-25T05:02:51.724Z,97462.29
2018-05-25T05:05:19.265Z,97463.89
2018-05-25T05:07:46.808Z,97466.08
2018-05-25T05:10:14.344Z,97457.00
2018-05-25T05:12:41.998Z,97461.36
2018-05-25T05:15:09.530Z,97462.75
2018-05-25T05:17:37.300Z,97467.17
2018-05-25T05:20:04.829Z,97463.30
2018-05-25T05:22:32.366Z,97468.90
2018-05-25T05:24:59.933Z,97471.80
2018-05-25T05:27:27.456Z,97478.55
2018-05-25T05:29:55.014Z,97476.95
2018-05-25T05:32:22.539Z,97472.94
2018-05-25T05:34:50.321Z,97474.42
2018-05-25T05:37:17.853Z,97472.98
2018-05-25T05:39:46.009Z,97475.12
2018-05-25T05:42:13.568Z,97474.06
2018-05-25T05:44:42.012Z,97477.44
2018-05-25T05:47:09.569Z,97474.44
2018-05-25T05:49:37.096Z,97472.48
2018-05-25T05:52:04.676Z,97473.80
2018-05-25T05:54:32.292Z,97473.36
2018-05-25T05:56:59.821Z,97470.46
2018-05-25T05:59:27.372Z,97470.95
2018-05-25T06:01:54.914Z,97480.17
2018-05-25T06:04:22.522Z,97473.38
2018-05-25T06:06:50.004Z,97481.61
2018-05-25T06:09:17.793Z,97490.88
2018-05-25T06:11:45.321Z,97492.48
2018-05-25T06:14:13.851Z,97495.09
2018-05-25T06:16:41.409Z,97489.64
2018-05-25T06:19:08.956Z,97493.78
2018-05-25T06:21:36.516Z,97496.08
2018-05-25T06:24:04.068Z,97503.28
2018-05-25T06:26:31.632Z,97500.17
2018-05-25T06:28:59.159Z,97501.68
2018-05-25T06:31:26.685Z,97504.90
2018-05-25T06:33:54.242Z,97502.28
2018-05-25T06:36:22.807Z,97505.46
2018-05-25T06:38:50.879Z,97502.83
2018-05-25T06:41:18.424Z,97507.08
2018-05-25T06:43:46.935Z,97503.28
2018-05-25T06:46:14.457Z,97510.67
2018-05-25T06:48:41.993Z,97516.80
2018-05-25T06:51:09.617Z,97516.68
2018-05-25T06:53:37.144Z,97520.69
2018-05-25T06:56:04.715Z,97519.89
2018-05-25T06:58:32.241Z,97518.94
2018-05-25T07:00:59.812Z,97521.51
2018-05-25T07:03:27.341Z,97515.20
2018-05-25T07:05:54.864Z,97512.97
2018-05-25T07:08:22.424Z,97511.00
2018-05-25T07:10:49.948Z,97518.39
2018-05-25T07:13:17.520Z,97523.11
2018-05-25T07:15:46.010Z,97522.73
2018-05-25T07:18:13.724Z,97525.00
2018-05-25T07:20:41.252Z,97523.91
2018-05-25T07:23:08.780Z,97529.50
2018-05-25T07:25:36.328Z,97525.50
2018-05-25T07:28:03.856Z,97526.27
2018-05-25T07:30:31.421Z,97524.46
2018-05-25T07:32:58.943Z,97532.22
2018-05-25T07:35:26.525Z,97527.14
2018-05-25T07:37:54.055Z,97528.46
2018-05-25T07:40:21.583Z,97528.03
2018-05-25T07:42:49.137Z,97521.73
2018-05-25T07:45:16.669Z,97523.47
2018-05-25T07:47:44.230Z,97527.55
2018-05-25T07:50:11.766Z,97519.84
2018-05-25T07:52:39.341Z,97519.64
2018-05-25T07:55:06.861Z,97524.75
2018-05-25T07:57:34.387Z,97523.24
2018-05-25T08:00:01.943Z,97526.73
2018-05-25T08:02:29.469Z,97518.98
2018-05-25T08:04:58.007Z,97519.53
2018-05-25T08:07:25.538Z,97518.77
2018-05-25T08:09:53.105Z,97519.59
2018-05-25T08:12:20.634Z,97521.55
2018-05-25T08:14:48.168Z,97525.34
2018-05-25T08:17:15.732Z,97521.14
2018-05-25T08:19:43.252Z,97522.52
2018-05-25T08:22:10.811Z,97526.04
2018-05-25T08:24:38.333Z,97517.88
2018-05-25T08:27:06.128Z,97527.56
2018-05-25T08:29:33.821Z,97529.08
2018-05-25T08:32:01.571Z,97526.13
2018-05-25T08:34:29.141Z,97524.49
2018-05-25T08:36:56.668Z,97526.79
2018-05-25T08:39:24.225Z,97527.40
2018-05-25T08:41:51.758Z,97526.90
2018-05-25T08:44:19.321Z,97530.52
2018-05-25T08:46:46.845Z,97531.11
2018-05-25T08:49:14.364Z,97524.45
2018-05-25T08:51:41.921Z,97532.64
2018-05-25T08:54:09.441Z,97529.59
2018-05-25T08:56:37.013Z,97527.17
2018-05-25T08:59:04.548Z,97538.08
2018-05-25T09:01:32.363Z,97529.87
2018-05-25T09:03:59.891Z,97529.70
2018-05-25T09:06:27.406Z,97530.31
2018-05-25T09:08:54.961Z,97534.89
2018-05-25T09:11:22.529Z,97535.88
2018-05-25T09:13:50.108Z,97529.78
2018-05-25T09:16:17.637Z,97532.19
2018-05-25T09:18:45.209Z,97530.89
2018-05-25T09:21:12.737Z,97532.75
2018-05-25T09:23:40.261Z,97531.79
2018-05-25T09:26:07.819Z,97525.66
2018-05-25T09:28:35.352Z,97537.27
2018-05-25T09:31:02.903Z,97534.64
2018-05-25T09:33:30.423Z,97530.28
2018-05-25T09:35:58.126Z,97529.00
2018-05-25T09:38:25.640Z,97536.75
2018-05-25T09:40:53.178Z,97535.30
2018-05-25T09:43:20.726Z,97536.03
2018-05-25T09:45:48.260Z,97538.02
2018-05-25T09:48:15.800Z,97534.22
2018-05-25T09:50:43.349Z,97534.98
2018-05-25T09:53:11.319Z,97539.06
2018-05-25T09:55:38.841Z,97538.89
2018-05-25T09:58:06.356Z,97538.84
2018-05-25T10:00:33.900Z,97536.26
2018-05-25T10:03:01.424Z,97539.20
2018-05-25T10:05:28.974Z,97544.90
2018-05-25T10:07:56.520Z,97538.80
2018-05-25T10:10:24.344Z,97533.80
2018-05-25T10:12:51.873Z,97533.08
2018-05-25T10:15:19.396Z,97534.30
2018-05-25T10:17:46.941Z,97527.12
2018-05-25T10:20:14.458Z,97522.88
2018-05-25T10:22:42.021Z,97523.47
2018-05-25T10:25:09.541Z,97524.27
2018-05-25T10:27:37.251Z,97522.58
2018-05-25T10:30:04.769Z,97530.13
2018-05-25T10:32:32.298Z,97533.70
2018-05-25T10:34:59.895Z,97524.42
2018-05-25T10:37:27.383Z,97527.09
2018-05-25T10:39:54.937Z,97521.66
2018-05-25T10:42:22.481Z,97520.77
2018-05-25T10:44:50.337Z,97522.66
2018-05-25T10:47:17.882Z,97520.66
2018-05-25T10:49:45.417Z,97518.38
2018-05-25T10:52:13.153Z,97517.17
2018-05-25T10:54:40.669Z,97514.55
2018-05-25T10:57:08.192Z,97514.38
2018-05-25T10:59:35.756Z,97520.84
2018-05-25T11:02:03.273Z,97518.30
2018-05-25T11:04:31.260Z,97510.20
2018-05-25T11:06:58.784Z,97510.91
2018-05-25T11:09:26.300Z,97515.47
2018-05-25T11:11:53.852Z,97504.92
2018-05-25T11:14:21.384Z,97503.69
2018-05-25T11:16:49.284Z,97501.02
2018-05-25T11:19:16.796Z,97490.91
2018-05-25T11:21:44.331Z,97493.09
2018-05-25T11:24:11.896Z,97484.70
2018-05-25T11:26:39.411Z,97494.03
2018-05-25T11:29:07.164Z,97490.27
2018-05-25T11:31:34.689Z,97494.41
2018-05-25T11:34:02.216Z,97487.17
2018-05-25T11:36:29.761Z,97485.16
2018-05-25T11:38:57.289Z,97485.72
2018-05-25T11:41:25.805Z,97491.67
2018-05-25T11:43:53.320Z,97485.45
2018-05-25T11:46:21.080Z,97484.45
2018-05-25T11:48:48.597Z,97476.63
2018-05-25T11:51:16.108Z,97477.66
2018-05-25T11:53:43.652Z,97481.84
2018-05-25T11:56:11.176Z,97479.16
2018-05-25T11:58:38.717Z,97475.08
2018-05-25T12:01:06.244Z,97480.08
2018-05-25T12:03:33.986Z,97478.32
2018-05-25T12:06:01.504Z,97475.20
2018-05-25T12:08:29.025Z,97471.61
2018-05-25T12:10:56.616Z,97467.58
2018-05-25T12:13:24.128Z,97468.14
2018-05-25T12:15:51.772Z,97467.91
2018-05-25T12:18:19.309Z,97461.45
2018-05-25T12:20:46.852Z,97462.14
2018-05-25T12:23:14.365Z,97468.38
2018-05-25T12:25:43.001Z,97461.84
2018-05-25T12:28:10.559Z,97468.92
2018-05-25T12:30:38.936Z,97453.95
2018-05-25T12:33:06.670Z,97465.56
2018-05-25T12:35:34.743Z,97463.55
2018-05-25T12:38:03.365Z,97455.82
2018-05-25T12:40:31.535Z,97458.15
2018-05-25T12:42:59.370Z,97451.72
2018-05-25T12:45:26.949Z,97458.81
2018-05-25T12:47:54.688Z,97464.70
2018-05-25T12:50:22.584Z,97456.36
2018-05-25T12:52:51.340Z,97460.19
2018-05-25T12:55:19.138Z,97457.24
2018-05-25T12:57:46.712Z,97459.31
2018-05-25T13:00:15.829Z,97461.44
2018-05-25T13:02:46.099Z,97457.54
2018-05-25T13:05:14.308Z,97457.95
2018-05-25T13:07:41.888Z,97464.30
2018-05-25T13:10:10.529Z,97464.17
2018-05-25T13:12:38.484Z,97458.67
2018-05-25T13:15:07.089Z,97452.46
2018-05-25T13:17:34.676Z,97454.79
2018-05-25T13:20:03.161Z,97451.67
2018-05-25T13:22:30.732Z,97455.16
2018-05-25T13:25:00.596Z,97453.23
2018-05-25T13:27:28.109Z,97451.98
2018-05-25T13:29:55.931Z,97459.85
2018-05-25T13:32:23.484Z,97459.88
2018-05-25T13:34:51.351Z,97453.66
2018-05-25T13:37:19.400Z,97461.80
2018-05-25T13:39:47.683Z,97464.84
2018-05-25T13:42:16.236Z,97464.31
2018-05-25T13:44:44.661Z,97465.38
2018-05-25T13:47:13.361Z,97459.40
2018-05-25T13:49:40.883Z,97465.29
2018-05-25T13:52:09.467Z,97459.92
2018-05-25T13:54:37.097Z,97458.65
2018-05-25T13:57:04.704Z,97458.77
2018-05-25T13:59:33.088Z,97452.21
2018-05-25T14:02:00.656Z,97451.92
2018-05-25T14:04:28.580Z,97444.20
2018-05-25T14:06:58.025Z,97445.94
2018-05-25T14:09:28.240Z,97444.49
2018-05-25T14:11:55.826Z,97443.96
2018-05-25T14:14:23.873Z,97442.84
2018-05-25T14:16:51.627Z,97441.94
2018-05-25T14:19:20.168Z,97440.47
2018-05-25T14:21:48.509Z,97442.42
2018-05-25T14:24:17.079Z,97434.84
2018-05-25T14:26:44.828Z,97439.75
2018-05-25T14:29:13.094Z,97439.50
2018-05-25T14:31:42.319Z,97442.12
2018-05-25T14:34:09.864Z,97431.95
2018-05-25T14:36:38.444Z,97438.45
2018-05-25T14:39:07.046Z,97439.22
2018-05-25T14:41:36.215Z,97440.78
2018-05-25T14:44:04.518Z,97428.39
2018-05-25T14:46:32.061Z,97433.66
2018-05-25T14:49:00.320Z,97429.02
2018-05-25T14:51:29.123Z,97425.97
2018-05-25T14:53:56.836Z,97431.31
2018-05-25T14:56:24.548Z,97430.66
2018-05-25T14:58:53.152Z,97429.89
2018-05-25T15:01:22.218Z,97427.19
2018-05-25T15:03:50.830Z,97426.96
2018-05-25T15:06:18.720Z,97432.16
2018-05-25T15:08:46.433Z,97432.13
2018-05-25T15:11:14.824Z,97436.67
2018-05-25T15:13:42.708Z,97429.05
2018-05-25T15:16:10.573Z,97421.81
2018-05-25T15:18:38.432Z,97429.57
2018-05-25T15:21:06.239Z,97429.22
2018-05-25T15:23:37.055Z,97431.30
2018-05-25T15:26:04.919Z,97432.23
2018-05-25T15:28:34.012Z,97430.50
2018-05-25T15:31:02.455Z,97431.16
2018-05-25T15:33:32.601Z,97436.31
2018-05-25T15:36:01.071Z,97438.14
2018-05-25T15:38:28.677Z,97431.63
2018-05-25T15:40:57.126Z,97434.98
2018-05-25T15:43:24.849Z,97435.23
2018-05-25T15:45:52.485Z,97428.77
2018-05-25T15:48:20.100Z,97428.30
2018-05-25T15:50:47.761Z,97423.98
2018-05-25T15:53:15.520Z,97423.46
2018-05-25T15:55:43.056Z,97432.17
2018-05-25T15:58:10.585Z,97434.71
2018-05-25T16:00:43.712Z,97429.02
2018-05-25T16:03:11.225Z,97433.87
2018-05-25T16:05:38.769Z,97429.45
2018-05-25T16:08:06.370Z,97433.67
2018-05-25T16:10:36.214Z,97434.41
2018-05-25T16:13:11.901Z,97429.68
2018-05-25T16:15:39.832Z,97421.68
2018-05-25T16:18:07.358Z,97417.16
2018-05-25T16:20:34.872Z,97414.43
2018-05-25T16:23:02.416Z,97412.36
2018-05-25T16:25:29.928Z,97418.92
2018-05-25T16:27:57.468Z,97417.92
2018-05-25T16:30:24.986Z,97417.05
2018-05-25T16:32:52.524Z,97416.67
2018-05-25T16:35:20.452Z,97413.61
2018-05-25T16:37:47.969Z,97416.77
2018-05-25T16:40:15.570Z,97413.52
2018-05-25T16:42:43.062Z,97414.30
2018-05-25T16:45:10.616Z,97418.84
2018-05-25T16:47:38.132Z,97417.81
2018-05-25T16:50:05.745Z,97415.83
2018-05-25T16:52:33.225Z,97412.10
2018-05-25T16:55:00.744Z,97411.39
2018-05-25T16:57:29.848Z,97414.70
2018-05-25T16:59:57.473Z,97417.27
2018-05-25T17:02:25.005Z,97413.28
2018-05-25T17:04:52.556Z,97408.95
2018-05-25T17:07:26.501Z,97416.34
2018-05-25T17:09:54.054Z,97414.76
2018-05-25T17:12:21.596Z,97413.77
2018-05-25T17:15:02.318Z,97417.69
2018-05-25T17:17:29.846Z,97415.10
2018-05-25T17:19:57.397Z,97416.52
2018-05-25T17:22:24.937Z,97422.48
2018-05-25T17:24:52.480Z,97423.78
2018-05-25T17:27:20.021Z,97419.56
2018-05-25T17:29:47.549Z,97427.78
2018-05-25T17:32:15.129Z,97425.26
2018-05-25T17:34:42.641Z,97419.50
2018-05-25T17:37:10.692Z,97423.30
2018-05-25T17:39:38.216Z,97417.78
2018-05-25T17:42:09.155Z,97417.20
2018-05-25T17:44:36.705Z,97426.31
2018-05-25T17:47:04.226Z,97422.09
2018-05-25T17:49:31.902Z,97415.92
2018-05-25T17:52:00.496Z,97419.28
2018-05-25T17:54:31.188Z,97422.27
2018-05-25T17:56:58.804Z,97421.66
2018-05-25T17:59:26.280Z,97427.25
2018-05-25T18:01:53.829Z,97427.25
2018-05-25T18:04:21.368Z,97423.41
2018-05-25T18:06:48.968Z,97425.23
2018-05-25T18:09:16.467Z,97432.55
2018-05-25T18:11:44.329Z,97431.66
2018-05-25T18:14:11.990Z,97428.27
2018-05-25T18:16:39.505Z,97431.05
2018-05-25T18:19:07.044Z,97433.72
2018-05-25T18:21:34.561Z,97430.95
2018-05-25T18:24:02.112Z,97433.09
2018-05-25T18:26:29.629Z,97442.30
2018-05-25T18:28:58.335Z,97432.98
2018-05-25T18:31:25.911Z,97431.44
2018-05-25T18:33:53.471Z,97438.38
2018-05-25T18:36:21.190Z,97439.28
2018-05-25T18:38:48.780Z,97437.33
2018-05-25T18:41:16.474Z,97443.30
2018-05-25T18:43:44.116Z,97438.88
2018-05-25T18:46:11.672Z,97450.48
2018-05-25T18:48:39.184Z,97442.88
2018-05-25T18:51:06.767Z,97446.86
2018-05-25T18:53:34.431Z,97449.44
2018-05-25T18:56:02.204Z,97451.60
2018-05-25T18:58:29.900Z,97449.88
2018-05-25T19:00:57.563Z,97452.33
2018-05-25T19:03:25.335Z,97457.33
2018-05-25T19:05:53.298Z,97458.72
2018-05-25T19:08:20.979Z,97464.06
2018-05-25T19:10:48.881Z,97468.08
2018-05-25T19:13:16.690Z,97469.31
2018-05-25T19:15:44.557Z,97475.77
2018-05-25T19:18:12.203Z,97476.52
2018-05-25T19:20:39.882Z,97476.25
2018-05-25T19:23:07.645Z,97476.72
2018-05-25T19:25:35.305Z,97478.80
2018-05-25T19:28:02.916Z,97479.20
2018-05-25T19:30:30.593Z,97486.86
2018-05-25T19:32:58.588Z,97480.86
2018-05-25T19:35:26.232Z,97485.86
2018-05-25T19:37:54.121Z,97484.28
2018-05-25T19:40:21.688Z,97488.30
2018-05-25T19:42:49.344Z,97489.12
2018-05-25T19:45:17.059Z,97492.12
2018-05-25T19:47:44.737Z,97496.34
2018-05-25T19:50:12.437Z,97495.80
2018-05-25T19:52:40.816Z,97500.07
2018-05-25T19:55:08.785Z,97495.69
2018-05-25T19:57:36.588Z,97497.12
2018-05-25T20:00:04.416Z,97498.81
2018-05-25T20:02:32.059Z,97500.63
2018-05-25T20:05:00.047Z,97504.42
2018-05-25T20:07:27.718Z,97514.71
2018-05-25T20:09:55.465Z,97513.53
2018-05-25T20:12:23.062Z,97510.66
2018-05-25T20:14:50.795Z,97506.85
2018-05-25T20:17:18.560Z,97509.84
2018-05-25T20:19:46.223Z,97510.52
2018-05-25T20:22:14.191Z,97508.30
2018-05-25T20:24:42.130Z,97509.59
2018-05-25T20:27:10.758Z,97506.59
2018-05-25T20:29:40.956Z,97510.53
2018-05-25T20:32:10.063Z,97509.73
2018-05-25T20:34:40.156Z,97509.03
2018-05-25T20:37:09.444Z,97508.03
2018-05-25T20:39:38.268Z,97514.02
2018-05-25T20:42:07.678Z,97508.17
2018-05-25T20:44:35.333Z,97504.97
2018-05-25T20:47:02.929Z,97500.41
2018-05-25T20:49:33.850Z,97501.53
2018-05-25T20:52:02.784Z,97497.33
2018-05-25T20:54:30.483Z,97495.33
2018-05-25T20:56:58.351Z,97490.53
2018-05-25T20:59:26.867Z,97486.53
2018-05-25T21:01:56.237Z,97490.13
2018-05-25T21:04:24.905Z,97490.66
2018-05-25T21:06:53.252Z,97491.59
2018-05-25T21:09:20.944Z,97490.09
2018-05-25T21:11:48.486Z,97487.40
2018-05-25T21:14:16.815Z,97484.68
2018-05-25T21:16:44.569Z,97487.81
2018-05-25T21:19:12.101Z,97486.55
2018-05-25T21:21:39.652Z,97492.99
2018-05-25T21:24:07.207Z,97496.16
2018-05-25T21:26:34.992Z,97486.45
2018-05-25T21:29:03.594Z,97481.39
2018-05-25T21:31:31.560Z,97480.16
2018-05-25T21:34:00.225Z,97479.19
2018-05-25T21:36:27.762Z,97489.07
2018-05-25T21:38:55.414Z,97492.69
2018-05-25T21:41:22.937Z,97503.42
2018-05-25T21:43:50.835Z,97506.20
2018-05-25T21:46:18.383Z,97510.66
2018-05-25T21:48:45.939Z,97513.80
2018-05-25T21:51:13.513Z,97516.98
2018-05-25T21:53:41.069Z,97517.77
2018-05-25T21:56:08.629Z,97517.45
2018-05-25T21:58:36.161Z,97519.30
2018-05-25T22:01:03.741Z,97516.59
2018-05-25T22:03:31.273Z,97516.91
2018-05-25T22:05:58.792Z,97521.16
2018-05-25T22:08:26.341Z,97529.13
2018-05-25T22:10:53.857Z,97531.67
2018-05-25T22:13:21.405Z,97527.73
2018-05-25T22:15:48.945Z,97531.08
2018-05-25T22:18:17.236Z,97529.09
2018-05-25T22:20:44.781Z,97539.50
2018-05-25T22:23:13.436Z,97533.80
2018-05-25T22:25:40.981Z,97532.05
2018-05-25T22:28:08.517Z,97530.81
2018-05-25T22:30:36.066Z,97533.93
2018-05-25T22:33:04.341Z,97537.97
2018-05-25T22:35:32.090Z,97534.48
2018-05-25T22:37:59.609Z,97537.78
2018-05-25T22:40:27.128Z,97538.75
2018-05-25T22:43:06.488Z,97542.11
2018-05-25T22:45:45.784Z,97544.03
2018-05-25T22:48:25.057Z,97535.09
2018-05-25T22:51:04.445Z,97528.62
2018-05-25T22:53:37.194Z,97523.87
2018-05-25T22:56:04.756Z,97526.22
2018-05-25T22:58:33.848Z,97520.81
2018-05-25T23:01:01.508Z,97520.12
2018-05-25T23:03:29.069Z,97524.95
2018-05-25T23:05:56.605Z,97526.23
2018-05-25T23:08:24.317Z,97518.60
2018-05-25T23:10:51.837Z,97511.70
2018-05-25T23:13:19.370Z,97506.20
2018-05-25T23:15:46.920Z,97507.05
2018-05-25T23:18:14.438Z,97512.56
2018-05-25T23:20:41.981Z,97511.88
2018-05-25T23:23:09.512Z,97513.30
2018-05-25T23:25:37.332Z,97507.87
2018-05-25T23:28:05.757Z,97509.44
2018-05-25T23:30:33.904Z,97520.45
2018-05-25T23:33:01.481Z,97520.59
2018-05-25T23:35:29.003Z,97517.16
2018-05-25T23:37:56.564Z,97519.41
2018-05-25T23:40:24.084Z,97518.61
2018-05-25T23:42:51.779Z,97527.52
2018-05-25T23:45:19.301Z,97529.20
2018-05-25T23:47:47.915Z,97530.21
2018-05-25T23:50:15.467Z,97524.22
2018-05-25T23:52:42.984Z,97519.80
2018-05-25T23:55:10.541Z,97530.27
2018-05-25T23:57:38.065Z,97533.55
